sensor_id;sensor_type;location;lat;lon;timestamp;temperature;humidity
5041;DHT22;2539;52.568;13.364;2023-04-03T00:01:23;0.80;99.90
5041;DHT22;2539;52.568;13.364;2023-04-03T00:03:49;0.80;99.90
5041;DHT22;2539;52.568;13.364;2023-04-03T00:06:17;0.80;99.90
5041;DHT22;2539;52.568;13.364;2023-04-03T00:11:13;0.80;99.90
5041;DHT22;2539;52.568;13.364;2023-04-03T00:16:07;0.70;99.90
5041;DHT22;2539;52.568;13.364;2023-04-03T00:18:34;0.70;99.90
5041;DHT22;2539;52.568;13.364;2023-04-03T00:21:00;0.70;99.90
5041;DHT22;2539;52.568;13.364;2023-04-03T00:23:27;0.60;99.90
5041;DHT22;2539;52.568;13.364;2023-04-03T00:25:54;0.60;99.90
5041;DHT22;2539;52.568;13.364;2023-04-03T00:28:20;0.70;99.90
5041;DHT22;2539;52.568;13.364;2023-04-03T00:30:49;0.60;99.90
5041;DHT22;2539;52.568;13.364;2023-04-03T00:33:15;0.60;99.90
5041;DHT22;2539;52.568;13.364;2023-04-03T00:35:42;0.60;99.90
5041;DHT22;2539;52.568;13.364;2023-04-03T00:38:08;0.50;99.90
5041;DHT22;2539;52.568;13.364;2023-04-03T00:40:38;0.50;99.90
5041;DHT22;2539;52.568;13.364;2023-04-03T00:43:23;0.50;99.90
5041;DHT22;2539;52.568;13.364;2023-04-03T00:45:53;0.40;99.90
5041;DHT22;2539;52.568;13.364;2023-04-03T00:48:23;0.40;99.90
5041;DHT22;2539;52.568;13.364;2023-04-03T00:50:52;0.40;99.90
5041;DHT22;2539;52.568;13.364;2023-04-03T00:53:23;0.40;99.90
5041;DHT22;2539;52.568;13.364;2023-04-03T00:55:51;0.30;99.90
5041;DHT22;2539;52.568;13.364;2023-04-03T00:58:21;0.30;99.90
5041;DHT22;2539;52.568;13.364;2023-04-03T01:00:54;0.40;99.90
5041;DHT22;2539;52.568;13.364;2023-04-03T01:05:50;0.30;99.90
5041;DHT22;2539;52.568;13.364;2023-04-03T01:08:17;0.20;99.90
5041;DHT22;2539;52.568;13.364;2023-04-03T01:10:43;0.20;99.90
5041;DHT22;2539;52.568;13.364;2023-04-03T01:13:30;0.10;99.90
5041;DHT22;2539;52.568;13.364;2023-04-03T01:16:00;0.10;99.90
5041;DHT22;2539;52.568;13.364;2023-04-03T01:24:34;0.10;99.90
5041;DHT22;2539;52.568;13.364;2023-04-03T01:27:04;0.10;99.90
5041;DHT22;2539;52.568;13.364;2023-04-03T01:29:31;0.00;99.90
5041;DHT22;2539;52.568;13.364;2023-04-03T01:32:00;0.00;99.90
5041;DHT22;2539;52.568;13.364;2023-04-03T01:34:27;0.00;99.90
5041;DHT22;2539;52.568;13.364;2023-04-03T01:36:54;-0.10;99.90
5041;DHT22;2539;52.568;13.364;2023-04-03T01:39:21;-0.10;99.90
5041;DHT22;2539;52.568;13.364;2023-04-03T01:41:48;-0.10;99.90
5041;DHT22;2539;52.568;13.364;2023-04-03T01:54:02;-0.20;99.90
5041;DHT22;2539;52.568;13.364;2023-04-03T01:56:28;-0.20;99.90
5041;DHT22;2539;52.568;13.364;2023-04-03T01:58:54;-0.20;99.90
5041;DHT22;2539;52.568;13.364;2023-04-03T02:06:14;-0.20;99.90
5041;DHT22;2539;52.568;13.364;2023-04-03T02:11:07;-0.30;99.90
5041;DHT22;2539;52.568;13.364;2023-04-03T02:13:34;-0.30;99.90
5041;DHT22;2539;52.568;13.364;2023-04-03T02:16:06;-0.30;99.90
5041;DHT22;2539;52.568;13.364;2023-04-03T02:18:33;-0.40;99.90
5041;DHT22;2539;52.568;13.364;2023-04-03T02:20:59;-0.40;99.90
5041;DHT22;2539;52.568;13.364;2023-04-03T02:23:25;-0.30;99.90
5041;DHT22;2539;52.568;13.364;2023-04-03T02:25:51;-0.30;99.90
5041;DHT22;2539;52.568;13.364;2023-04-03T02:28:18;-0.30;99.90
5041;DHT22;2539;52.568;13.364;2023-04-03T02:30:44;-0.30;99.90
5041;DHT22;2539;52.568;13.364;2023-04-03T02:33:10;-0.30;99.90
5041;DHT22;2539;52.568;13.364;2023-04-03T02:35:39;-0.30;99.90
5041;DHT22;2539;52.568;13.364;2023-04-03T02:38:06;-0.30;99.90
5041;DHT22;2539;52.568;13.364;2023-04-03T02:40:32;-0.30;99.90
5041;DHT22;2539;52.568;13.364;2023-04-03T02:42:58;-0.30;99.90
5041;DHT22;2539;52.568;13.364;2023-04-03T02:47:52;-0.30;99.90
5041;DHT22;2539;52.568;13.364;2023-04-03T02:50:18;-0.30;99.90
5041;DHT22;2539;52.568;13.364;2023-04-03T02:55:14;-0.30;99.90
5041;DHT22;2539;52.568;13.364;2023-04-03T03:00:08;-0.40;99.90
5041;DHT22;2539;52.568;13.364;2023-04-03T03:02:34;-0.40;99.90
5041;DHT22;2539;52.568;13.364;2023-04-03T03:07:28;-0.50;99.90
5041;DHT22;2539;52.568;13.364;2023-04-03T03:12:21;-0.40;99.90
5041;DHT22;2539;52.568;13.364;2023-04-03T03:14:49;-0.50;99.90
5041;DHT22;2539;52.568;13.364;2023-04-03T03:17:16;-0.40;99.90
5041;DHT22;2539;52.568;13.364;2023-04-03T03:19:42;-0.40;99.90
5041;DHT22;2539;52.568;13.364;2023-04-03T03:22:09;-0.40;99.90
5041;DHT22;2539;52.568;13.364;2023-04-03T03:24:35;-0.40;99.90
5041;DHT22;2539;52.568;13.364;2023-04-03T03:29:29;-0.40;99.90
5041;DHT22;2539;52.568;13.364;2023-04-03T03:31:55;-0.40;99.90
5041;DHT22;2539;52.568;13.364;2023-04-03T03:34:21;-0.40;99.90
5041;DHT22;2539;52.568;13.364;2023-04-03T03:36:48;-0.50;99.90
5041;DHT22;2539;52.568;13.364;2023-04-03T03:39:14;-0.50;99.90
5041;DHT22;2539;52.568;13.364;2023-04-03T03:44:07;-0.40;99.90
5041;DHT22;2539;52.568;13.364;2023-04-03T03:49:00;-0.50;99.90
5041;DHT22;2539;52.568;13.364;2023-04-03T03:51:26;-0.50;99.90
5041;DHT22;2539;52.568;13.364;2023-04-03T03:53:52;-0.50;99.90
5041;DHT22;2539;52.568;13.364;2023-04-03T03:56:19;-0.50;99.90
5041;DHT22;2539;52.568;13.364;2023-04-03T03:58:46;-0.60;99.90
5041;DHT22;2539;52.568;13.364;2023-04-03T04:01:12;-0.60;99.90
5041;DHT22;2539;52.568;13.364;2023-04-03T04:08:32;-0.60;99.90
5041;DHT22;2539;52.568;13.364;2023-04-03T04:10:58;-0.60;99.90
5041;DHT22;2539;52.568;13.364;2023-04-03T04:28:07;-0.60;99.90
5041;DHT22;2539;52.568;13.364;2023-04-03T04:30:33;-0.60;99.90
5041;DHT22;2539;52.568;13.364;2023-04-03T04:33:00;-0.70;99.90
5041;DHT22;2539;52.568;13.364;2023-04-03T04:35:26;-0.70;99.90
5041;DHT22;2539;52.568;13.364;2023-04-03T04:37:53;-0.70;99.90
5041;DHT22;2539;52.568;13.364;2023-04-03T04:45:13;-0.80;99.90
5041;DHT22;2539;52.568;13.364;2023-04-03T04:47:41;-0.80;99.90
5041;DHT22;2539;52.568;13.364;2023-04-03T04:50:08;-0.80;99.90
5041;DHT22;2539;52.568;13.364;2023-04-03T04:52:34;-0.80;99.90
5041;DHT22;2539;52.568;13.364;2023-04-03T04:57:27;-0.70;99.90
5041;DHT22;2539;52.568;13.364;2023-04-03T04:59:53;-0.70;99.90
5041;DHT22;2539;52.568;13.364;2023-04-03T05:02:20;-0.70;99.90
5041;DHT22;2539;52.568;13.364;2023-04-03T05:07:13;-0.60;99.90
5041;DHT22;2539;52.568;13.364;2023-04-03T05:09:39;-0.60;99.90
5041;DHT22;2539;52.568;13.364;2023-04-03T05:14:34;-0.60;99.90
5041;DHT22;2539;52.568;13.364;2023-04-03T05:19:28;-0.50;99.90
5041;DHT22;2539;52.568;13.364;2023-04-03T05:21:54;-0.50;99.90
5041;DHT22;2539;52.568;13.364;2023-04-03T05:24:21;-0.40;99.90
5041;DHT22;2539;52.568;13.364;2023-04-03T05:31:40;-0.20;99.90
5041;DHT22;2539;52.568;13.364;2023-04-03T05:41:27;-0.10;99.90
5041;DHT22;2539;52.568;13.364;2023-04-03T05:43:53;0.00;99.90
5041;DHT22;2539;52.568;13.364;2023-04-03T05:46:20;0.10;99.90
5041;DHT22;2539;52.568;13.364;2023-04-03T05:51:22;0.20;99.90
5041;DHT22;2539;52.568;13.364;2023-04-03T05:53:52;0.20;99.90
5041;DHT22;2539;52.568;13.364;2023-04-03T06:06:06;0.60;99.90
5041;DHT22;2539;52.568;13.364;2023-04-03T06:08:34;0.60;99.90
5041;DHT22;2539;52.568;13.364;2023-04-03T06:13:28;0.60;99.90
5041;DHT22;2539;52.568;13.364;2023-04-03T06:15:55;0.80;99.90
5041;DHT22;2539;52.568;13.364;2023-04-03T06:23:16;1.00;99.90
5041;DHT22;2539;52.568;13.364;2023-04-03T06:28:10;1.20;99.90
5041;DHT22;2539;52.568;13.364;2023-04-03T06:30:37;1.30;99.90
5041;DHT22;2539;52.568;13.364;2023-04-03T06:35:30;1.40;99.90
5041;DHT22;2539;52.568;13.364;2023-04-03T06:40:24;1.60;99.90
5041;DHT22;2539;52.568;13.364;2023-04-03T06:42:51;1.60;99.90
5041;DHT22;2539;52.568;13.364;2023-04-03T06:45:18;1.60;99.90
5041;DHT22;2539;52.568;13.364;2023-04-03T06:47:44;1.70;99.90
5041;DHT22;2539;52.568;13.364;2023-04-03T06:50:11;1.80;99.90
5041;DHT22;2539;52.568;13.364;2023-04-03T06:52:40;1.80;99.90
5041;DHT22;2539;52.568;13.364;2023-04-03T07:04:55;2.30;99.90
5041;DHT22;2539;52.568;13.364;2023-04-03T07:12:15;2.80;99.90
5041;DHT22;2539;52.568;13.364;2023-04-03T07:22:03;3.00;99.90
5041;DHT22;2539;52.568;13.364;2023-04-03T07:24:29;3.00;99.90
5041;DHT22;2539;52.568;13.364;2023-04-03T07:26:56;3.10;99.90
5041;DHT22;2539;52.568;13.364;2023-04-03T07:29:22;3.10;99.90
5041;DHT22;2539;52.568;13.364;2023-04-03T07:31:48;3.10;99.90
5041;DHT22;2539;52.568;13.364;2023-04-03T07:34:15;3.10;99.90
5041;DHT22;2539;52.568;13.364;2023-04-03T07:39:08;3.20;99.90
5041;DHT22;2539;52.568;13.364;2023-04-03T07:41:34;3.40;99.90
5041;DHT22;2539;52.568;13.364;2023-04-03T07:46:28;3.60;99.90
5041;DHT22;2539;52.568;13.364;2023-04-03T07:56:13;3.90;99.90
5041;DHT22;2539;52.568;13.364;2023-04-03T08:03:32;4.10;99.90
5041;DHT22;2539;52.568;13.364;2023-04-03T08:06:03;4.30;99.90
5041;DHT22;2539;52.568;13.364;2023-04-03T08:08:30;4.50;99.90
5041;DHT22;2539;52.568;13.364;2023-04-03T08:10:58;4.50;99.90
5041;DHT22;2539;52.568;13.364;2023-04-03T08:18:19;4.20;99.90
5041;DHT22;2539;52.568;13.364;2023-04-03T08:25:42;3.90;99.90
5041;DHT22;2539;52.568;13.364;2023-04-03T08:28:09;3.80;99.90
5041;DHT22;2539;52.568;13.364;2023-04-03T08:30:39;3.90;99.90
5041;DHT22;2539;52.568;13.364;2023-04-03T08:40:26;3.90;99.90
5041;DHT22;2539;52.568;13.364;2023-04-03T08:45:50;4.10;99.90
5041;DHT22;2539;52.568;13.364;2023-04-03T08:48:23;4.00;99.90
5041;DHT22;2539;52.568;13.364;2023-04-03T08:50:56;3.90;99.90
5041;DHT22;2539;52.568;13.364;2023-04-03T08:53:27;3.90;99.90
5041;DHT22;2539;52.568;13.364;2023-04-03T08:55:55;4.00;99.90
5041;DHT22;2539;52.568;13.364;2023-04-03T08:58:30;3.90;99.90
5041;DHT22;2539;52.568;13.364;2023-04-03T09:01:01;4.00;99.90
5041;DHT22;2539;52.568;13.364;2023-04-03T09:03:40;4.10;99.90
5041;DHT22;2539;52.568;13.364;2023-04-03T09:06:13;4.20;99.90
5041;DHT22;2539;52.568;13.364;2023-04-03T09:08:56;4.10;99.90
5041;DHT22;2539;52.568;13.364;2023-04-03T09:17:33;5.20;99.90
5041;DHT22;2539;52.568;13.364;2023-04-03T09:20:11;5.10;99.90
5041;DHT22;2539;52.568;13.364;2023-04-03T09:22:42;4.90;99.90
5041;DHT22;2539;52.568;13.364;2023-04-03T09:27:43;5.30;99.90
5041;DHT22;2539;52.568;13.364;2023-04-03T09:30:20;5.30;99.90
5041;DHT22;2539;52.568;13.364;2023-04-03T09:32:49;6.30;99.90
5041;DHT22;2539;52.568;13.364;2023-04-03T09:35:23;6.10;98.30
5041;DHT22;2539;52.568;13.364;2023-04-03T09:38:13;6.00;99.30
5041;DHT22;2539;52.568;13.364;2023-04-03T09:40:42;6.00;99.50
5041;DHT22;2539;52.568;13.364;2023-04-03T09:43:28;6.30;98.60
5041;DHT22;2539;52.568;13.364;2023-04-03T09:45:55;6.40;98.30
5041;DHT22;2539;52.568;13.364;2023-04-03T09:48:24;6.20;98.50
5041;DHT22;2539;52.568;13.364;2023-04-03T09:53:41;6.40;97.70
5041;DHT22;2539;52.568;13.364;2023-04-03T09:58:44;6.10;98.40
5041;DHT22;2539;52.568;13.364;2023-04-03T10:01:27;6.10;98.60
5041;DHT22;2539;52.568;13.364;2023-04-03T10:04:14;6.30;98.80
5041;DHT22;2539;52.568;13.364;2023-04-03T10:06:59;6.20;97.90
5041;DHT22;2539;52.568;13.364;2023-04-03T10:09:29;6.20;98.30
5041;DHT22;2539;52.568;13.364;2023-04-03T10:14:29;6.10;97.40
5041;DHT22;2539;52.568;13.364;2023-04-03T10:22:11;6.20;97.80
5041;DHT22;2539;52.568;13.364;2023-04-03T10:30:39;6.30;96.20
5041;DHT22;2539;52.568;13.364;2023-04-03T10:37:01;6.30;93.70
5041;DHT22;2539;52.568;13.364;2023-04-03T10:39:34;6.20;94.20
5041;DHT22;2539;52.568;13.364;2023-04-03T10:42:18;6.10;95.00
5041;DHT22;2539;52.568;13.364;2023-04-03T10:53:30;6.70;94.80
5041;DHT22;2539;52.568;13.364;2023-04-03T10:56:25;6.60;94.70
5041;DHT22;2539;52.568;13.364;2023-04-03T11:02:00;6.40;94.60
5041;DHT22;2539;52.568;13.364;2023-04-03T11:04:53;6.20;95.30
5041;DHT22;2539;52.568;13.364;2023-04-03T11:07:23;6.00;95.90
5041;DHT22;2539;52.568;13.364;2023-04-03T11:09:55;6.10;96.00
5041;DHT22;2539;52.568;13.364;2023-04-03T11:12:33;6.10;96.60
5041;DHT22;2539;52.568;13.364;2023-04-03T11:15:03;5.90;96.60
5041;DHT22;2539;52.568;13.364;2023-04-03T11:17:36;5.90;97.20
5041;DHT22;2539;52.568;13.364;2023-04-03T11:20:31;5.90;97.70
5041;DHT22;2539;52.568;13.364;2023-04-03T11:23:06;5.80;97.70
5041;DHT22;2539;52.568;13.364;2023-04-03T11:25:36;5.60;98.20
5041;DHT22;2539;52.568;13.364;2023-04-03T11:28:06;5.60;98.60
5041;DHT22;2539;52.568;13.364;2023-04-03T11:30:51;5.70;99.00
5041;DHT22;2539;52.568;13.364;2023-04-03T11:33:51;5.80;99.10
5041;DHT22;2539;52.568;13.364;2023-04-03T11:36:50;5.80;98.80
5041;DHT22;2539;52.568;13.364;2023-04-03T11:39:26;6.00;98.80
5041;DHT22;2539;52.568;13.364;2023-04-03T11:41:54;6.00;98.60
5041;DHT22;2539;52.568;13.364;2023-04-03T11:44:36;5.80;99.00
5041;DHT22;2539;52.568;13.364;2023-04-03T11:47:05;5.90;99.60
5041;DHT22;2539;52.568;13.364;2023-04-03T11:49:51;5.80;99.40
5041;DHT22;2539;52.568;13.364;2023-04-03T12:05:57;5.50;99.90
5041;DHT22;2539;52.568;13.364;2023-04-03T12:19:01;5.40;99.90
5041;DHT22;2539;52.568;13.364;2023-04-03T12:24:23;5.40;99.90
5041;DHT22;2539;52.568;13.364;2023-04-03T12:32:15;5.70;99.90
5041;DHT22;2539;52.568;13.364;2023-04-03T12:34:51;5.90;99.90
5041;DHT22;2539;52.568;13.364;2023-04-03T12:45:59;6.10;98.50
5041;DHT22;2539;52.568;13.364;2023-04-03T12:48:31;6.10;97.20
5041;DHT22;2539;52.568;13.364;2023-04-03T12:50:58;6.20;97.20
5041;DHT22;2539;52.568;13.364;2023-04-03T12:53:27;6.30;97.60
5041;DHT22;2539;52.568;13.364;2023-04-03T12:55:57;6.10;98.60
5041;DHT22;2539;52.568;13.364;2023-04-03T13:01:13;5.80;99.90
5041;DHT22;2539;52.568;13.364;2023-04-03T13:03:45;5.70;99.90
5041;DHT22;2539;52.568;13.364;2023-04-03T13:06:18;5.60;99.90
5041;DHT22;2539;52.568;13.364;2023-04-03T13:08:53;5.60;99.90
5041;DHT22;2539;52.568;13.364;2023-04-03T13:11:21;5.60;99.90
5041;DHT22;2539;52.568;13.364;2023-04-03T13:14:01;5.60;99.90
5041;DHT22;2539;52.568;13.364;2023-04-03T13:16:29;5.60;99.90
5041;DHT22;2539;52.568;13.364;2023-04-03T13:21:31;5.70;99.90
5041;DHT22;2539;52.568;13.364;2023-04-03T13:24:00;5.80;99.90
5041;DHT22;2539;52.568;13.364;2023-04-03T13:26:31;5.50;99.90
5041;DHT22;2539;52.568;13.364;2023-04-03T13:29:04;5.80;99.90
5041;DHT22;2539;52.568;13.364;2023-04-03T13:31:37;5.80;99.90
5041;DHT22;2539;52.568;13.364;2023-04-03T13:34:17;5.90;99.90
5041;DHT22;2539;52.568;13.364;2023-04-03T13:36:54;5.90;99.90
5041;DHT22;2539;52.568;13.364;2023-04-03T13:39:30;5.80;99.90
5041;DHT22;2539;52.568;13.364;2023-04-03T13:42:00;5.60;99.90
5041;DHT22;2539;52.568;13.364;2023-04-03T13:44:33;5.50;99.90
5041;DHT22;2539;52.568;13.364;2023-04-03T13:47:24;5.50;99.90
5041;DHT22;2539;52.568;13.364;2023-04-03T13:50:13;5.60;99.90
5041;DHT22;2539;52.568;13.364;2023-04-03T13:52:51;5.70;99.90
5041;DHT22;2539;52.568;13.364;2023-04-03T13:55:27;5.70;99.90
5041;DHT22;2539;52.568;13.364;2023-04-03T13:58:24;5.70;99.90
5041;DHT22;2539;52.568;13.364;2023-04-03T14:00:56;5.50;99.90
5041;DHT22;2539;52.568;13.364;2023-04-03T14:03:39;5.60;99.90
5041;DHT22;2539;52.568;13.364;2023-04-03T14:06:10;5.60;99.90
5041;DHT22;2539;52.568;13.364;2023-04-03T14:11:03;5.60;99.90
5041;DHT22;2539;52.568;13.364;2023-04-03T14:13:30;5.60;99.90
5041;DHT22;2539;52.568;13.364;2023-04-03T14:18:24;5.80;99.90
5041;DHT22;2539;52.568;13.364;2023-04-03T14:20:51;5.90;99.90
5041;DHT22;2539;52.568;13.364;2023-04-03T14:23:17;5.80;99.90
5041;DHT22;2539;52.568;13.364;2023-04-03T14:25:43;5.70;99.90
5041;DHT22;2539;52.568;13.364;2023-04-03T14:28:18;5.70;99.90
5041;DHT22;2539;52.568;13.364;2023-04-03T14:30:46;5.50;99.90
5041;DHT22;2539;52.568;13.364;2023-04-03T14:33:15;5.60;99.90
5041;DHT22;2539;52.568;13.364;2023-04-03T14:35:42;6.20;99.90
5041;DHT22;2539;52.568;13.364;2023-04-03T14:38:23;6.30;99.90
5041;DHT22;2539;52.568;13.364;2023-04-03T14:40:50;6.10;99.90
5041;DHT22;2539;52.568;13.364;2023-04-03T14:43:17;5.90;99.90
5041;DHT22;2539;52.568;13.364;2023-04-03T14:45:44;5.60;99.90
5041;DHT22;2539;52.568;13.364;2023-04-03T14:48:22;5.50;99.90
5041;DHT22;2539;52.568;13.364;2023-04-03T14:50:50;5.50;99.90
5041;DHT22;2539;52.568;13.364;2023-04-03T14:53:18;5.40;99.90
5041;DHT22;2539;52.568;13.364;2023-04-03T14:55:49;5.30;99.90
5041;DHT22;2539;52.568;13.364;2023-04-03T14:58:18;5.20;99.90
5041;DHT22;2539;52.568;13.364;2023-04-03T15:00:45;5.10;99.90
5041;DHT22;2539;52.568;13.364;2023-04-03T15:03:19;5.00;99.90
5041;DHT22;2539;52.568;13.364;2023-04-03T15:05:48;4.90;99.90
5041;DHT22;2539;52.568;13.364;2023-04-03T15:08:26;4.80;99.90
5041;DHT22;2539;52.568;13.364;2023-04-03T15:10:56;4.80;99.90
5041;DHT22;2539;52.568;13.364;2023-04-03T15:13:22;4.90;99.90
5041;DHT22;2539;52.568;13.364;2023-04-03T15:15:49;4.80;99.90
5041;DHT22;2539;52.568;13.364;2023-04-03T15:18:25;4.80;99.90
5041;DHT22;2539;52.568;13.364;2023-04-03T15:20:53;4.80;99.90
5041;DHT22;2539;52.568;13.364;2023-04-03T15:23:20;4.80;99.90
5041;DHT22;2539;52.568;13.364;2023-04-03T15:25:47;4.80;99.90
5041;DHT22;2539;52.568;13.364;2023-04-03T15:28:23;4.80;99.90
5041;DHT22;2539;52.568;13.364;2023-04-03T15:33:19;4.80;99.90
5041;DHT22;2539;52.568;13.364;2023-04-03T15:35:46;4.70;99.90
5041;DHT22;2539;52.568;13.364;2023-04-03T15:40:39;4.80;99.90
5041;DHT22;2539;52.568;13.364;2023-04-03T15:43:06;4.80;99.90
5041;DHT22;2539;52.568;13.364;2023-04-03T15:45:34;4.80;99.90
5041;DHT22;2539;52.568;13.364;2023-04-03T15:48:01;4.80;99.90
5041;DHT22;2539;52.568;13.364;2023-04-03T15:52:54;4.80;99.90
5041;DHT22;2539;52.568;13.364;2023-04-03T15:55:23;4.70;99.90
5041;DHT22;2539;52.568;13.364;2023-04-03T15:57:50;4.60;99.90
5041;DHT22;2539;52.568;13.364;2023-04-03T16:00:16;4.60;99.90
5041;DHT22;2539;52.568;13.364;2023-04-03T16:02:46;4.40;99.90
5041;DHT22;2539;52.568;13.364;2023-04-03T16:05:13;4.30;99.90
5041;DHT22;2539;52.568;13.364;2023-04-03T16:07:41;4.30;99.90
5041;DHT22;2539;52.568;13.364;2023-04-03T16:10:09;4.30;99.90
5041;DHT22;2539;52.568;13.364;2023-04-03T16:12:35;4.30;99.90
5041;DHT22;2539;52.568;13.364;2023-04-03T16:15:03;4.80;99.90
5041;DHT22;2539;52.568;13.364;2023-04-03T16:17:30;4.80;99.90
5041;DHT22;2539;52.568;13.364;2023-04-03T16:19:57;5.10;99.90
5041;DHT22;2539;52.568;13.364;2023-04-03T16:22:25;5.40;99.90
5041;DHT22;2539;52.568;13.364;2023-04-03T16:24:52;5.60;99.90
5041;DHT22;2539;52.568;13.364;2023-04-03T16:27:18;5.70;99.90
5041;DHT22;2539;52.568;13.364;2023-04-03T16:29:44;5.80;99.90
5041;DHT22;2539;52.568;13.364;2023-04-03T16:32:12;5.80;99.90
5041;DHT22;2539;52.568;13.364;2023-04-03T16:34:38;5.50;99.90
5041;DHT22;2539;52.568;13.364;2023-04-03T16:37:06;5.20;99.90
5041;DHT22;2539;52.568;13.364;2023-04-03T16:39:35;5.00;99.90
5041;DHT22;2539;52.568;13.364;2023-04-03T16:42:01;4.80;99.90
5041;DHT22;2539;52.568;13.364;2023-04-03T16:44:27;4.70;99.90
5041;DHT22;2539;52.568;13.364;2023-04-03T16:46:54;4.60;99.90
5041;DHT22;2539;52.568;13.364;2023-04-03T16:49:20;4.60;99.90
5041;DHT22;2539;52.568;13.364;2023-04-03T16:51:48;4.60;99.90
5041;DHT22;2539;52.568;13.364;2023-04-03T16:56:41;4.30;99.90
5041;DHT22;2539;52.568;13.364;2023-04-03T17:01:35;4.30;99.90
5041;DHT22;2539;52.568;13.364;2023-04-03T17:04:01;4.20;99.90
5041;DHT22;2539;52.568;13.364;2023-04-03T17:08:55;4.20;99.90
5041;DHT22;2539;52.568;13.364;2023-04-03T17:11:21;4.20;99.90
5041;DHT22;2539;52.568;13.364;2023-04-03T17:16:15;4.20;99.90
5041;DHT22;2539;52.568;13.364;2023-04-03T17:18:42;4.10;99.90
5041;DHT22;2539;52.568;13.364;2023-04-03T17:21:09;4.20;99.90
5041;DHT22;2539;52.568;13.364;2023-04-03T17:23:36;4.20;99.90
5041;DHT22;2539;52.568;13.364;2023-04-03T17:28:30;4.20;99.90
5041;DHT22;2539;52.568;13.364;2023-04-03T17:30:58;4.10;99.90
5041;DHT22;2539;52.568;13.364;2023-04-03T17:33:26;4.00;99.90
5041;DHT22;2539;52.568;13.364;2023-04-03T17:35:56;4.00;99.90
5041;DHT22;2539;52.568;13.364;2023-04-03T17:38:23;4.00;99.90
5041;DHT22;2539;52.568;13.364;2023-04-03T17:45:42;4.00;99.90
5041;DHT22;2539;52.568;13.364;2023-04-03T17:48:09;4.00;99.90
5041;DHT22;2539;52.568;13.364;2023-04-03T17:50:36;4.00;99.90
5041;DHT22;2539;52.568;13.364;2023-04-03T17:57:56;3.80;99.90
5041;DHT22;2539;52.568;13.364;2023-04-03T18:02:52;3.80;99.90
5041;DHT22;2539;52.568;13.364;2023-04-03T18:05:19;3.80;99.90
5041;DHT22;2539;52.568;13.364;2023-04-03T18:07:46;3.70;99.90
5041;DHT22;2539;52.568;13.364;2023-04-03T18:10:12;3.70;99.90
5041;DHT22;2539;52.568;13.364;2023-04-03T18:12:40;3.70;99.90
5041;DHT22;2539;52.568;13.364;2023-04-03T18:15:07;3.70;99.90
5041;DHT22;2539;52.568;13.364;2023-04-03T18:17:34;3.70;99.90
5041;DHT22;2539;52.568;13.364;2023-04-03T18:20:00;3.60;99.90
5041;DHT22;2539;52.568;13.364;2023-04-03T18:22:28;3.60;99.90
5041;DHT22;2539;52.568;13.364;2023-04-03T18:24:56;3.50;99.90
5041;DHT22;2539;52.568;13.364;2023-04-03T18:27:25;3.50;99.90
5041;DHT22;2539;52.568;13.364;2023-04-03T18:29:56;3.50;99.90
5041;DHT22;2539;52.568;13.364;2023-04-03T18:32:23;3.40;99.90
5041;DHT22;2539;52.568;13.364;2023-04-03T18:34:49;3.40;99.90
5041;DHT22;2539;52.568;13.364;2023-04-03T18:37:16;3.40;99.90
5041;DHT22;2539;52.568;13.364;2023-04-03T18:39:42;3.30;99.90
5041;DHT22;2539;52.568;13.364;2023-04-03T18:42:12;3.30;99.90
5041;DHT22;2539;52.568;13.364;2023-04-03T18:44:42;3.30;99.90
5041;DHT22;2539;52.568;13.364;2023-04-03T18:47:09;3.20;99.90
5041;DHT22;2539;52.568;13.364;2023-04-03T18:49:38;3.20;99.90
5041;DHT22;2539;52.568;13.364;2023-04-03T18:52:04;3.20;99.90
5041;DHT22;2539;52.568;13.364;2023-04-03T18:54:31;3.20;99.90
5041;DHT22;2539;52.568;13.364;2023-04-03T18:56:57;3.10;99.90
5041;DHT22;2539;52.568;13.364;2023-04-03T18:59:24;3.00;99.90
5041;DHT22;2539;52.568;13.364;2023-04-03T19:01:50;3.10;99.90
5041;DHT22;2539;52.568;13.364;2023-04-03T19:04:17;3.10;99.90
5041;DHT22;2539;52.568;13.364;2023-04-03T19:06:43;3.00;99.90
5041;DHT22;2539;52.568;13.364;2023-04-03T19:09:09;3.10;99.90
5041;DHT22;2539;52.568;13.364;2023-04-03T19:11:36;3.10;99.90
5041;DHT22;2539;52.568;13.364;2023-04-03T19:14:02;3.10;99.90
5041;DHT22;2539;52.568;13.364;2023-04-03T19:16:29;3.10;99.90
5041;DHT22;2539;52.568;13.364;2023-04-03T19:18:55;3.10;99.90
5041;DHT22;2539;52.568;13.364;2023-04-03T19:21:21;3.10;99.90
5041;DHT22;2539;52.568;13.364;2023-04-03T19:23:48;3.00;99.90
5041;DHT22;2539;52.568;13.364;2023-04-03T19:26:14;3.00;99.90
5041;DHT22;2539;52.568;13.364;2023-04-03T19:28:41;3.10;99.90
5041;DHT22;2539;52.568;13.364;2023-04-03T19:31:16;3.00;99.90
5041;DHT22;2539;52.568;13.364;2023-04-03T19:33:43;3.00;99.90
5041;DHT22;2539;52.568;13.364;2023-04-03T19:36:10;3.00;99.90
5041;DHT22;2539;52.568;13.364;2023-04-03T19:38:37;3.00;99.90
5041;DHT22;2539;52.568;13.364;2023-04-03T19:41:09;3.00;99.90
5041;DHT22;2539;52.568;13.364;2023-04-03T19:43:36;3.00;99.90
5041;DHT22;2539;52.568;13.364;2023-04-03T19:46:04;2.90;99.90
5041;DHT22;2539;52.568;13.364;2023-04-03T19:48:30;2.90;99.90
5041;DHT22;2539;52.568;13.364;2023-04-03T19:50:57;2.90;99.90
5041;DHT22;2539;52.568;13.364;2023-04-03T19:53:23;2.90;99.90
5041;DHT22;2539;52.568;13.364;2023-04-03T19:55:55;2.90;99.90
5041;DHT22;2539;52.568;13.364;2023-04-03T19:58:23;2.90;99.90
5041;DHT22;2539;52.568;13.364;2023-04-03T20:00:50;2.80;99.90
5041;DHT22;2539;52.568;13.364;2023-04-03T20:03:16;2.90;99.90
5041;DHT22;2539;52.568;13.364;2023-04-03T20:05:44;2.90;99.90
5041;DHT22;2539;52.568;13.364;2023-04-03T20:08:12;2.80;99.90
5041;DHT22;2539;52.568;13.364;2023-04-03T20:10:38;2.80;99.90
5041;DHT22;2539;52.568;13.364;2023-04-03T20:13:08;2.70;99.90
5041;DHT22;2539;52.568;13.364;2023-04-03T20:15:36;2.70;99.90
5041;DHT22;2539;52.568;13.364;2023-04-03T20:18:14;2.70;99.90
5041;DHT22;2539;52.568;13.364;2023-04-03T20:21:04;2.50;99.90
5041;DHT22;2539;52.568;13.364;2023-04-03T20:23:31;2.50;99.90
5041;DHT22;2539;52.568;13.364;2023-04-03T20:26:00;2.40;99.90
5041;DHT22;2539;52.568;13.364;2023-04-03T20:28:26;2.40;99.90
5041;DHT22;2539;52.568;13.364;2023-04-03T20:30:53;2.30;99.90
5041;DHT22;2539;52.568;13.364;2023-04-03T20:33:22;2.20;99.90
5041;DHT22;2539;52.568;13.364;2023-04-03T20:35:49;2.30;99.90
5041;DHT22;2539;52.568;13.364;2023-04-03T20:38:15;2.20;99.90
5041;DHT22;2539;52.568;13.364;2023-04-03T20:40:42;2.70;99.90
5041;DHT22;2539;52.568;13.364;2023-04-03T20:43:08;2.10;99.90
5041;DHT22;2539;52.568;13.364;2023-04-03T20:45:35;2.00;99.90
5041;DHT22;2539;52.568;13.364;2023-04-03T20:48:01;1.90;99.90
5041;DHT22;2539;52.568;13.364;2023-04-03T20:50:32;1.90;99.90
5041;DHT22;2539;52.568;13.364;2023-04-03T20:52:59;1.80;99.90
5041;DHT22;2539;52.568;13.364;2023-04-03T20:55:26;1.80;99.90
5041;DHT22;2539;52.568;13.364;2023-04-03T20:57:53;1.70;99.90
5041;DHT22;2539;52.568;13.364;2023-04-03T21:00:23;1.60;99.90
5041;DHT22;2539;52.568;13.364;2023-04-03T21:02:50;1.60;99.90
5041;DHT22;2539;52.568;13.364;2023-04-03T21:05:16;1.60;99.90
5041;DHT22;2539;52.568;13.364;2023-04-03T21:19:27;1.40;99.90
5041;DHT22;2539;52.568;13.364;2023-04-03T21:21:53;1.40;99.90
5041;DHT22;2539;52.568;13.364;2023-04-03T21:24:21;1.30;99.90
5041;DHT22;2539;52.568;13.364;2023-04-03T21:26:47;1.30;99.90
5041;DHT22;2539;52.568;13.364;2023-04-03T21:29:14;1.30;99.90
5041;DHT22;2539;52.568;13.364;2023-04-03T21:31:55;1.30;99.90
5041;DHT22;2539;52.568;13.364;2023-04-03T21:34:32;1.30;99.90